Dame Des Tropiques — FQJE — position and weather

sailwx.info

Track history (hours):
 
Tides and Currents Weather Stations Pressure Air Temp Water Temp Dewpoint Dewpoint Depression Visibility Wind Speed Wind Dir Waves Ship Positions

Dame Des Tropiques

Last reported at 2016-Aug-29 22:28 UTC. Time now 2016-Aug-30 09:02 UTC.
Position N 48°50' W 001°36'.

Length 28 m.

Type: Sailing vessel. MMSI: 347002100.

Date/timePositionNaut miles runAvg speedWind from/ knotsBaromVisibWave heightAir tempDewpointWater temp
2016-Aug-29 22:28N 48°50' W 001°36'11 1.5
2016-Aug-29 15:15N 48°51' W 001°53'5 6.0
2016-Aug-29 14:27N 48°55' W 001°58'  
2016-Aug-26 13:16N 48°50' W 001°36'12 2.0
2016-Aug-26 07:31N 48°53' W 001°53'10 7.3
2016-Aug-26 06:12N 49°02' W 001°59'11 1.7
2016-Aug-25 23:27N 49°11' W 002°10'1 0.1
2016-Aug-25 16:31N 49°10' W 002°10'22 2.5
2016-Aug-25 07:33N 49°27' W 002°32'0 0.0
2016-Aug-25 04:18N 49°27' W 002°32'0 0.0
2016-Aug-25 00:24N 49°27' W 002°32'0 0.0
2016-Aug-24 20:21N 49°27' W 002°32'0 0.0
2016-Aug-24 19:30N 49°27' W 002°32'0 0.0
2016-Aug-24 18:34N 49°27' W 002°32'0 0.0
2016-Aug-24 17:18N 49°27' W 002°32'0 0.0
2016-Aug-24 16:15N 49°27' W 002°32'0 0.3
2016-Aug-24 15:20N 49°27' W 002°31'5 5.9
2016-Aug-24 14:33N 49°25' W 002°25'2 1.7
2016-Aug-24 13:06N 49°25' W 002°21'0 0.0
2016-Aug-24 12:06N 49°25' W 002°21'0 0.0
2016-Aug-24 11:30N 49°25' W 002°21'0 0.0
2016-Aug-24 04:31N 49°25' W 002°21'0 0.0
2016-Aug-24 03:12N 49°25' W 002°21'0 0.0
2016-Aug-24 02:33N 49°25' W 002°21'0 0.0
2016-Aug-24 01:33N 49°25' W 002°21'18 0.7
2016-Aug-23 00:22N 49°13' W 002°01'0 0.0
2016-Aug-22 23:31N 49°13' W 002°01'28 1.6
2016-Aug-22 05:22N 48°50' W 001°36'0 0.0
2016-Aug-22 02:19N 48°50' W 001°36'0 0.0
2016-Aug-21 23:19N 48°50' W 001°36'  
Track history (hours):
 
Tides and Currents Weather Stations Pressure Air Temp Water Temp Dewpoint Dewpoint Depression Visibility Wind Speed Wind Dir Waves Ship Positions

Dame Des Tropiques

Last reported at 2016-Aug-29 22:28 UTC. Time now 2016-Aug-30 09:02 UTC.
Position N 48°50' W 001°36'.

Length 28 m.

Type: Sailing vessel. MMSI: 347002100.

Date/timePositionNaut miles runAvg speedWind from/ knotsBaromVisibWave heightAir tempDewpointWater temp
2016-Aug-29 22:28N 48°50' W 001°36'11 1.5
2016-Aug-29 15:15N 48°51' W 001°53'5 6.0
2016-Aug-29 14:27N 48°55' W 001°58'  
2016-Aug-26 13:16N 48°50' W 001°36'12 2.0
2016-Aug-26 07:31N 48°53' W 001°53'10 7.3
2016-Aug-26 06:12N 49°02' W 001°59'11 1.7
2016-Aug-25 23:27N 49°11' W 002°10'1 0.1
2016-Aug-25 16:31N 49°10' W 002°10'22 2.5
2016-Aug-25 07:33N 49°27' W 002°32'0 0.0
2016-Aug-25 04:18N 49°27' W 002°32'0 0.0
2016-Aug-25 00:24N 49°27' W 002°32'0 0.0
2016-Aug-24 20:21N 49°27' W 002°32'0 0.0
2016-Aug-24 19:30N 49°27' W 002°32'0 0.0
2016-Aug-24 18:34N 49°27' W 002°32'0 0.0
2016-Aug-24 17:18N 49°27' W 002°32'0 0.0
2016-Aug-24 16:15N 49°27' W 002°32'0 0.3
2016-Aug-24 15:20N 49°27' W 002°31'5 5.9
2016-Aug-24 14:33N 49°25' W 002°25'2 1.7
2016-Aug-24 13:06N 49°25' W 002°21'0 0.0
2016-Aug-24 12:06N 49°25' W 002°21'0 0.0
2016-Aug-24 11:30N 49°25' W 002°21'0 0.0
2016-Aug-24 04:31N 49°25' W 002°21'0 0.0
2016-Aug-24 03:12N 49°25' W 002°21'0 0.0
2016-Aug-24 02:33N 49°25' W 002°21'0 0.0
2016-Aug-24 01:33N 49°25' W 002°21'18 0.7
2016-Aug-23 00:22N 49°13' W 002°01'0 0.0
2016-Aug-22 23:31N 49°13' W 002°01'28 1.6
2016-Aug-22 05:22N 48°50' W 001°36'0 0.0
2016-Aug-22 02:19N 48°50' W 001°36'0 0.0
2016-Aug-21 23:19N 48°50' W 001°36'  

Dump ship's entire track history